Página principal
METAR-TAF:

METAR-TAF

Aeroportos :

Ouargla, Argélia

latitude: 31-55N, longitude: 005-24E, altura: 141 m

METAR: em falta

Hora: 13:45 (12:45 UTC)

Previsão

O boletim foi feito há 1 hora e 45 minutos, às 11:00 UTC
Previsão válida de 18 às 12 UTC a 18 às 21 UTC
Vento 6 kt de noroeste
Visibilidade 10 km ou mais
sem nuvens abaixo de 1500 metros e sem cumulonimbus

TAF: DAUU 181100Z 1812/1821 32006KT CAVOK

Observações e previsões do tempo de mais de 4000 aeroportos (mensagens METAR e TAF).

As estações disponíveis são os pontos amarelos e vermelhos sobre o mapa.

Mova o rato sobre o mapa para ver o nome da estação.

Depois clique no ponto para visualizar as observações e previsões meteorológicas.

Para alterar o mapa : clique nos botões verdes com uma cruz preta para aumentar o zoom; no botão verde com uma pitada de zoom; ou nas setas verdes para mapas adjacentes.


METAR-TAF: